Time;durP1;ratioP1;P1;durP2;ratioP2;P2;SDS_P1;SDS_P2;PMS_P1;PMS_P2;Temp;Humidity;BMP_temperature;BMP_pressure;BME280_temperature;BME280_humidity;BME280_pressure;Samples;Min_cycle;Max_cycle;Signal;HPM_P1;HPM_P2
2022/10/27 00:01:37;;;;;;;3.15;2.85;;;;;;;11.12;100.00;101602.56;5053144;28;20373;-76
2022/10/27 00:04:24;;;;;;;6.68;3.53;;;;;;;11.12;100.00;101597.34;5052873;28;20044;-76
2022/10/27 00:07:11;;;;;;;5.03;3.10;;;;;;;11.07;100.00;101598.19;5058886;28;20661;-77
2022/10/27 00:09:57;;;;;;;7.75;4.13;;;;;;;11.05;100.00;101602.53;5045465;28;20663;-76
2022/10/27 00:12:45;;;;;;;7.60;3.75;;;;;;;11.05;100.00;101599.06;5044680;28;20040;-76
2022/10/27 00:15:31;;;;;;;5.72;3.60;;;;;;;11.12;100.00;101616.56;5042603;28;20045;-76
2022/10/27 00:18:18;;;;;;;4.78;3.42;;;;;;;11.12;100.00;101608.72;5055547;28;20045;-78
2022/10/27 00:21:08;;;;;;;9.18;4.13;;;;;;;11.12;100.00;101613.06;5047388;28;20051;-75
2022/10/27 00:23:55;;;;;;;12.68;4.50;;;;;;;11.12;100.00;101611.34;5058298;28;20084;-81
2022/10/27 00:26:42;;;;;;;5.40;3.45;;;;;;;11.12;100.00;101620.91;5048905;28;20067;-82
2022/10/27 00:29:29;;;;;;;3.97;3.25;;;;;;;11.12;100.00;101615.69;5061933;28;20055;-80
2022/10/27 00:32:15;;;;;;;7.10;3.40;;;;;;;11.08;100.00;101613.06;5043858;28;20649;-79
2022/10/27 00:35:02;;;;;;;6.30;3.67;;;;;;;11.06;100.00;101616.53;5064588;28;20052;-76
2022/10/27 00:37:49;;;;;;;7.70;3.72;;;;;;;11.06;100.00;101625.25;5050445;28;20064;-77
2022/10/27 00:40:37;;;;;;;13.52;4.47;;;;;;;11.04;100.00;101624.41;5054172;28;20384;-76
2022/10/27 00:43:37;;;;;;;4.10;3.33;;;;;;;10.99;100.00;101619.97;5055231;28;20607;-75
2022/10/27 00:46:38;;;;;;;5.53;3.47;;;;;;;11.02;100.00;101622.63;5053676;28;20056;-77
2022/10/27 00:49:32;;;;;;;7.18;3.08;;;;;;;10.96;100.00;101620.84;5048421;28;20044;-76
2022/10/27 00:52:44;;;;;;;;;;;;;;;10.94;100.00;101625.22;5052908;28;20037;-79
2022/10/27 00:55:34;;;;;;;6.72;3.42;;;;;;;10.91;100.00;101628.69;5065312;28;19924;-78
2022/10/27 00:58:22;;;;;;;6.30;3.75;;;;;;;10.90;100.00;101620.84;5066031;28;20404;-80
2022/10/27 01:01:09;;;;;;;6.50;4.68;;;;;;;10.91;100.00;101627.81;5059355;28;20408;-80
2022/10/27 01:03:56;;;;;;;6.80;4.35;;;;;;;10.89;100.00;101633.03;5048467;28;20659;-78
2022/10/27 01:06:43;;;;;;;8.43;4.25;;;;;;;10.84;100.00;101628.66;5055994;28;20056;-79
2022/10/27 01:09:30;;;;;;;4.90;3.28;;;;;;;10.85;100.00;101633.03;5050200;28;20059;-77
2022/10/27 01:12:17;;;;;;;7.40;4.57;;;;;;;10.84;100.00;101633.91;5055934;28;20044;-77
2022/10/27 01:15:05;;;;;;;5.70;3.33;;;;;;;10.81;100.00;101636.47;5049831;28;20059;-80
2022/10/27 01:18:27;;;;;;;4.72;3.53;;;;;;;10.81;100.00;101641.72;5044309;28;20199;-79
2022/10/27 01:21:35;;;;;;;5.50;3.70;;;;;;;10.79;100.00;101644.34;5044785;28;20118;-76
2022/10/27 01:25:02;;;;;;;6.72;4.10;;;;;;;10.75;100.00;101647.81;5053921;28;20056;-79
2022/10/27 01:28:10;;;;;;;6.97;3.97;;;;;;;10.72;100.00;101646.03;5053758;28;20582;-79
2022/10/27 01:31:10;;;;;;;5.35;4.50;;;;;;;10.72;100.00;101650.41;5059019;28;20067;-78
2022/10/27 01:34:19;;;;;;;4.13;3.70;;;;;;;10.69;100.00;101651.28;5038984;28;20041;-77
2022/10/27 01:37:27;;;;;;;7.72;3.50;;;;;;;10.68;100.00;101654.75;5038843;28;20535;-80
2022/10/27 01:40:30;;;;;;;7.30;3.28;;;;;;;10.64;100.00;101647.75;5056329;28;20053;-76
2022/10/27 01:43:24;;;;;;;5.05;3.55;;;;;;;10.62;100.00;101644.22;5048000;28;20119;-80
2022/10/27 01:46:12;;;;;;;3.10;2.90;;;;;;;10.63;100.00;101650.34;5057873;28;20052;-77
2022/10/27 01:48:58;;;;;;;7.55;3.33;;;;;;;10.60;100.00;101645.97;5053801;28;20028;-78
2022/10/27 01:51:45;;;;;;;5.40;3.10;;;;;;;10.61;100.00;101652.06;5046994;28;20099;-79
2022/10/27 01:54:34;;;;;;;4.75;2.45;;;;;;;10.58;100.00;101655.53;5052911;28;20067;-77
2022/10/27 01:57:50;;;;;;;3.63;3.00;;;;;;;10.61;100.00;101644.22;5067715;28;20106;-77
2022/10/27 02:01:25;;;;;;;3.65;2.90;;;;;;;10.56;100.00;101645.06;5062601;28;20044;-79
2022/10/27 02:04:45;;;;;;;4.63;2.93;;;;;;;10.57;100.00;101645.94;5059695;28;20045;-77
2022/10/27 02:08:00;;;;;;;4.22;2.78;;;;;;;10.64;100.00;101652.97;5052769;28;20083;-78
2022/10/27 02:10:55;;;;;;;3.85;2.88;;;;;;;10.78;100.00;101653.06;5045631;28;20048;-75
2022/10/27 02:13:45;;;;;;;4.88;2.83;;;;;;;10.83;100.00;101655.72;5037551;28;20179;-81
2022/10/27 02:16:43;;;;;;;5.32;2.72;;;;;;;10.84;100.00;101655.72;5059086;28;20048;-77
2022/10/27 02:19:37;;;;;;;2.95;2.65;;;;;;;10.85;100.00;101662.72;5039488;28;20048;-76
2022/10/27 02:22:27;;;;;;;7.20;3.42;;;;;;;10.95;100.00;101662.75;5040535;28;20673;-77
2022/10/27 02:25:14;;;;;;;3.85;2.35;;;;;;;10.96;100.00;101661.91;5056449;28;20075;-77
2022/10/27 02:28:06;;;;;;;4.03;2.45;;;;;;;10.92;100.00;101659.28;5056426;28;20149;-78
2022/10/27 02:30:56;;;;;;;2.90;2.10;;;;;;;10.90;100.00;101679.34;5038287;28;20042;-80
2022/10/27 02:33:44;;;;;;;5.07;2.33;;;;;;;10.90;100.00;101676.72;5055928;28;20042;-75
2022/10/27 02:36:31;;;;;;;2.63;2.22;;;;;;;10.95;100.00;101673.25;5051004;28;20040;-75
2022/10/27 02:39:18;;;;;;;5.53;3.10;;;;;;;10.96;100.00;101682.84;5060852;28;20044;-76
2022/10/27 02:42:05;;;;;;;2.80;2.42;;;;;;;11.03;100.00;101674.16;5050925;28;20045;-75
2022/10/27 02:44:52;;;;;;;3.95;2.72;;;;;;;11.06;100.00;101676.81;5053400;28;20055;-75
2022/10/27 02:47:39;;;;;;;4.47;2.85;;;;;;;10.99;100.00;101681.13;5059052;28;20102;-75
2022/10/27 02:50:26;;;;;;;8.70;3.63;;;;;;;10.95;100.00;101668.91;5060453;28;20126;-76
2022/10/27 02:53:13;;;;;;;5.40;2.85;;;;;;;10.92;100.00;101669.75;5050502;28;20040;-78
2022/10/27 02:55:59;;;;;;;3.95;2.72;;;;;;;10.89;100.00;101679.31;5049718;28;20044;-77
2022/10/27 02:58:46;;;;;;;9.07;3.30;;;;;;;10.82;100.00;101680.13;5047231;28;20054;-80
2022/10/27 03:01:33;;;;;;;6.80;3.97;;;;;;;10.75;100.00;101685.38;5039690;28;20037;-79
2022/10/27 03:04:20;;;;;;;4.22;3.35;;;;;;;10.73;100.00;101689.69;5046824;28;20049;-80
2022/10/27 03:07:07;;;;;;;7.72;3.17;;;;;;;10.71;100.00;101694.03;5046741;28;20041;-78
2022/10/27 03:09:54;;;;;;;4.00;2.88;;;;;;;10.67;100.00;101697.50;5044176;28;20403;-79
2022/10/27 03:12:40;;;;;;;5.70;3.08;;;;;;;10.63;100.00;101693.13;5052396;28;20039;-79
2022/10/27 03:15:27;;;;;;;3.55;2.80;;;;;;;10.64;100.00;101696.59;5046625;28;20048;-78
2022/10/27 03:18:14;;;;;;;4.20;2.85;;;;;;;10.61;100.00;101692.22;5045185;28;20635;-79
2022/10/27 03:21:01;;;;;;;5.75;3.08;;;;;;;10.60;100.00;101690.47;5047972;28;20033;-79
2022/10/27 03:23:48;;;;;;;3.78;2.53;;;;;;;10.56;100.00;101699.19;5052638;28;20048;-77
2022/10/27 03:26:34;;;;;;;3.20;2.60;;;;;;;10.54;100.00;101701.75;5050493;28;20083;-78
2022/10/27 03:29:22;;;;;;;3.75;2.88;;;;;;;10.51;100.00;101699.13;5045498;28;20057;-78
2022/10/27 03:32:09;;;;;;;4.55;3.10;;;;;;;10.51;100.00;101695.66;5049789;28;20084;-78
2022/10/27 03:34:56;;;;;;;4.38;3.25;;;;;;;10.53;100.00;101707.88;5049253;28;20057;-80
2022/10/27 03:37:43;;;;;;;5.22;2.67;;;;;;;10.54;100.00;101701.75;5052810;28;20048;-78
2022/10/27 03:40:30;;;;;;;4.20;3.38;;;;;;;10.53;100.00;101707.00;5048513;28;20044;-81
2022/10/27 03:43:17;;;;;;;4.63;3.35;;;;;;;10.51;100.00;101714.84;5048791;28;20237;-78
2022/10/27 03:46:04;;;;;;;7.63;3.03;;;;;;;10.52;100.00;101716.59;5039806;28;20049;-77
2022/10/27 03:48:50;;;;;;;8.63;3.00;;;;;;;10.53;100.00;101714.84;5038277;28;20055;-78
2022/10/27 03:51:37;;;;;;;5.75;3.60;;;;;;;10.50;100.00;101717.44;5057973;28;20052;-77
2022/10/27 03:54:24;;;;;;;6.40;2.90;;;;;;;10.50;100.00;101712.22;5054776;28;20053;-77
2022/10/27 03:57:12;;;;;;;6.80;3.55;;;;;;;10.49;100.00;101719.19;5047990;28;20053;-78
2022/10/27 03:59:59;;;;;;;5.85;4.05;;;;;;;10.48;100.00;101719.16;5032752;28;20041;-78
2022/10/27 04:02:46;;;;;;;4.43;2.92;;;;;;;10.47;100.00;101728.78;5043492;28;20721;-76
2022/10/27 04:05:35;;;;;;;8.13;3.25;;;;;;;10.45;100.00;101727.88;5043821;28;20041;-75
2022/10/27 04:08:22;;;;;;;5.05;3.30;;;;;;;10.45;100.00;101730.50;5056234;28;20619;-78
2022/10/27 04:11:09;;;;;;;6.97;3.53;;;;;;;10.46;100.00;101726.16;5057740;28;20045;-77
2022/10/27 04:13:56;;;;;;;6.05;3.45;;;;;;;10.46;100.00;101713.94;5041856;28;20048;-81
2022/10/27 04:16:43;;;;;;;5.57;3.05;;;;;;;10.45;100.00;101721.78;5047418;28;20048;-77
2022/10/27 04:19:30;;;;;;;4.82;3.33;;;;;;;10.41;100.00;101715.63;5044399;28;20118;-79
2022/10/27 04:22:17;;;;;;;14.35;3.58;;;;;;;10.38;100.00;101718.22;5041595;28;20037;-78
2022/10/27 04:25:07;;;;;;;6.45;3.75;;;;;;;10.37;100.00;101709.47;5044526;28;20056;-77
2022/10/27 04:28:05;;;;;;;5.57;3.17;;;;;;;10.33;100.00;101718.13;5044921;28;20051;-77
2022/10/27 04:30:52;;;;;;;9.80;4.15;;;;;;;10.28;100.00;101717.22;5052038;28;20155;-77
2022/10/27 04:33:40;;;;;;;3.65;3.35;;;;;;;10.27;100.00;101716.34;5031915;28;20045;-77
2022/10/27 04:36:27;;;;;;;6.05;3.22;;;;;;;10.26;100.00;101714.59;5054081;28;20454;-78
2022/10/27 04:39:14;;;;;;;11.15;3.72;;;;;;;10.27;100.00;101712.84;5046512;28;20075;-78
2022/10/27 04:42:01;;;;;;;7.03;4.03;;;;;;;10.24;100.00;101713.69;5039618;28;20037;-75
2022/10/27 04:44:47;;;;;;;4.43;3.13;;;;;;;10.24;100.00;101712.81;5040756;28;20130;-78
2022/10/27 04:47:34;;;;;;;8.15;3.13;;;;;;;10.21;100.00;101713.66;5047260;28;20250;-78
2022/10/27 04:50:22;;;;;;;5.43;3.72;;;;;;;10.20;100.00;101714.53;5053882;28;20064;-79
2022/10/27 04:53:08;;;;;;;6.25;4.35;;;;;;;10.25;100.00;101714.59;5051783;28;20080;-76
2022/10/27 04:55:58;;;;;;;9.85;4.28;;;;;;;10.26;100.00;101711.97;5044368;28;20041;-75
2022/10/27 04:58:45;;;;;;;4.25;3.80;;;;;;;10.27;100.00;101713.75;5043567;28;20147;-79
2022/10/27 05:01:32;;;;;;;5.82;4.28;;;;;;;10.31;100.00;101714.66;5039873;28;20049;-78
2022/10/27 05:04:21;;;;;;;13.27;4.78;;;;;;;10.33;100.00;101725.13;5039825;28;20049;-79
2022/10/27 05:07:08;;;;;;;5.28;3.85;;;;;;;10.30;100.00;101715.50;5054372;28;20048;-80
2022/10/27 05:09:55;;;;;;;5.78;3.80;;;;;;;10.31;100.00;101721.59;5040996;28;20665;-78
2022/10/27 05:12:42;;;;;;;7.63;4.38;;;;;;;10.30;100.00;101717.22;5040284;28;20041;-78
2022/10/27 05:15:29;;;;;;;12.80;5.28;;;;;;;10.33;100.00;101720.75;5039664;28;20222;-78
2022/10/27 05:18:17;;;;;;;7.63;4.15;;;;;;;10.32;100.00;101724.22;5039797;28;20051;-77
2022/10/27 05:21:04;;;;;;;6.07;4.50;;;;;;;10.29;100.00;101729.44;5060352;28;20497;-77
2022/10/27 05:23:50;;;;;;;12.00;4.15;;;;;;;10.30;100.00;101722.47;5039758;28;20041;-79
2022/10/27 05:26:39;;;;;;;7.97;4.80;;;;;;;10.29;100.00;101711.13;5044491;28;20044;-80
2022/10/27 05:29:26;;;;;;;8.32;4.28;;;;;;;10.30;100.00;101719.84;5046659;28;20048;-80
2022/10/27 05:32:15;;;;;;;7.22;5.40;;;;;;;10.33;100.00;101723.38;5058759;28;20036;-77
2022/10/27 05:35:02;;;;;;;9.85;5.00;;;;;;;10.35;100.00;101718.16;5054236;28;20041;-77
2022/10/27 05:37:49;;;;;;;10.00;4.55;;;;;;;10.36;100.00;101719.94;5060469;28;20055;-80
2022/10/27 05:40:36;;;;;;;5.57;4.22;;;;;;;10.35;100.00;101721.69;5048640;28;20040;-76
2022/10/27 05:43:23;;;;;;;6.82;5.13;;;;;;;10.34;100.00;101724.22;5043181;28;20072;-79
2022/10/27 05:46:10;;;;;;;8.48;5.05;;;;;;;10.32;100.00;101716.38;5072576;28;20128;-77
2022/10/27 05:48:57;;;;;;;9.15;5.68;;;;;;;10.34;100.00;101714.66;5061913;28;20048;-79
2022/10/27 05:51:44;;;;;;;7.50;5.13;;;;;;;10.38;100.00;101715.59;5048698;28;20403;-78
2022/10/27 05:54:31;;;;;;;10.57;6.07;;;;;;;10.39;100.00;101712.09;5076470;28;20044;-77
2022/10/27 05:57:18;;;;;;;14.00;7.72;;;;;;;10.43;100.00;101721.75;5055299;28;20044;-77
2022/10/27 06:00:05;;;;;;;7.50;5.93;;;;;;;10.47;100.00;101714.78;5068626;28;20037;-76
2022/10/27 06:02:59;;;;;;;8.88;5.75;;;;;;;10.48;100.00;101711.31;5045170;28;20041;-75
2022/10/27 06:05:46;;;;;;;11.20;6.05;;;;;;;10.50;100.00;101720.06;5062240;28;20051;-79
2022/10/27 06:08:33;;;;;;;13.27;6.75;;;;;;;10.50;100.00;101720.94;5061755;28;20045;-76
2022/10/27 06:11:20;;;;;;;10.60;5.25;;;;;;;10.51;100.00;101717.47;5056676;28;20041;-75
2022/10/27 06:14:07;;;;;;;10.55;6.32;;;;;;;10.51;100.00;101716.59;5072830;28;20041;-75
2022/10/27 06:16:53;;;;;;;14.45;9.70;;;;;;;10.54;100.00;101721.84;5049139;28;20614;-76
2022/10/27 06:19:40;;;;;;;10.82;6.65;;;;;;;10.57;100.00;101722.75;5053206;28;20396;-76
2022/10/27 06:22:27;;;;;;;10.55;6.22;;;;;;;10.61;100.00;101723.63;5045441;28;20051;-76
2022/10/27 06:25:14;;;;;;;8.23;6.20;;;;;;;10.66;100.00;101715.81;5048857;28;20052;-77
2022/10/27 06:28:01;;;;;;;9.60;5.95;;;;;;;10.70;100.00;101720.22;5062039;28;20593;-78
2022/10/27 06:30:48;;;;;;;17.67;6.05;;;;;;;10.71;100.00;101725.47;5053257;28;20053;-78
2022/10/27 06:33:35;;;;;;;7.57;6.65;;;;;;;10.77;100.00;101719.41;5045791;28;20045;-80
2022/10/27 06:36:22;;;;;;;12.48;7.47;;;;;;;10.82;100.00;101724.66;5045667;28;20056;-77
2022/10/27 06:39:09;;;;;;;10.50;6.90;;;;;;;10.86;100.00;101729.06;5059324;28;20227;-77
2022/10/27 06:41:56;;;;;;;9.02;6.97;;;;;;;11.00;100.00;101734.41;5044140;28;20044;-76
2022/10/27 06:44:43;;;;;;;10.82;6.50;;;;;;;11.11;100.00;101737.97;5052602;28;20077;-78
2022/10/27 06:47:30;;;;;;;11.15;7.57;;;;;;;11.20;100.00;101745.03;5044290;28;20048;-76
2022/10/27 06:50:17;;;;;;;21.63;7.85;;;;;;;11.27;100.00;101744.19;5060682;28;20049;-80
2022/10/27 06:53:04;;;;;;;12.68;6.38;;;;;;;11.32;100.00;101746.84;5064755;28;20515;-77
2022/10/27 06:55:50;;;;;;;18.30;7.55;;;;;;;11.40;100.00;101755.63;5036296;28;20693;-79
2022/10/27 06:58:38;;;;;;;14.20;6.55;;;;;;;11.49;100.00;101752.16;5048277;28;20052;-80
2022/10/27 07:01:30;;;;;;;9.70;6.03;;;;;;;11.55;100.00;101750.44;5043483;28;20222;-79
2022/10/27 07:04:17;;;;;;;13.00;7.57;;;;;;;11.61;100.00;101754.84;5045854;28;20048;-78
2022/10/27 07:07:04;;;;;;;13.35;5.97;;;;;;;11.66;100.00;101763.59;5046908;28;20842;-81
2022/10/27 07:09:54;;;;;;;10.60;5.47;;;;;;;11.70;100.00;101756.63;5038799;28;20103;-78
2022/10/27 07:12:57;;;;;;;9.57;5.72;;;;;;;11.73;100.00;101759.25;5045652;28;20047;-77
2022/10/27 07:15:44;;;;;;;6.88;5.63;;;;;;;11.78;100.00;101773.28;5043738;28;20052;-78
2022/10/27 07:18:32;;;;;;;8.18;4.90;;;;;;;11.85;100.00;101761.03;5045189;28;20395;-78
2022/10/27 07:21:19;;;;;;;10.57;5.75;;;;;;;11.96;100.00;101766.38;5039003;28;20045;-77
2022/10/27 07:24:06;;;;;;;7.88;5.10;;;;;;;12.05;100.00;101769.91;5043264;28;20052;-78
2022/10/27 07:26:53;;;;;;;7.35;5.13;;;;;;;12.16;100.00;101775.19;5046785;28;20040;-77
2022/10/27 07:29:40;;;;;;;7.97;4.72;;;;;;;12.29;100.00;101775.22;5045018;28;20036;-79
2022/10/27 07:32:27;;;;;;;5.03;4.47;;;;;;;12.43;100.00;101770.84;5040341;28;20044;-77
2022/10/27 07:35:17;;;;;;;8.18;5.75;;;;;;;12.53;100.00;101777.00;5041330;28;20049;-77
2022/10/27 07:38:05;;;;;;;9.68;4.28;;;;;;;12.63;100.00;101786.63;5054657;28;20182;-79
2022/10/27 07:40:52;;;;;;;9.45;4.78;;;;;;;12.72;100.00;101785.75;5041906;28;20051;-79
2022/10/27 07:43:39;;;;;;;7.45;5.18;;;;;;;12.80;100.00;101783.13;5040080;28;20045;-77
2022/10/27 07:46:27;;;;;;;16.33;6.50;;;;;;;12.88;100.00;101789.25;5052827;28;20716;-78
2022/10/27 07:49:16;;;;;;;9.48;4.47;;;;;;;12.94;100.00;101791.88;5035906;28;20040;-78
2022/10/27 07:52:03;;;;;;;7.70;3.95;;;;;;;12.99;100.00;101784.00;5056167;28;20052;-78
2022/10/27 07:54:50;;;;;;;7.63;4.03;;;;;;;13.06;100.00;101784.00;5059730;28;20037;-76
2022/10/27 07:57:38;;;;;;;10.55;4.90;;;;;;;13.14;100.00;101781.38;5060958;28;20045;-80
2022/10/27 08:00:25;;;;;;;6.25;4.18;;;;;;;13.21;100.00;101788.34;5052393;28;20049;-77
2022/10/27 08:03:24;;;;;;;5.43;4.22;;;;;;;13.23;100.00;101786.59;5056044;28;20045;-80
2022/10/27 08:06:11;;;;;;;10.73;4.85;;;;;;;13.30;100.00;101789.22;5034895;28;20097;-78
2022/10/27 08:08:57;;;;;;;5.40;3.75;;;;;;;13.31;100.00;101788.34;5055368;28;20047;-80
2022/10/27 08:11:44;;;;;;;8.65;4.68;;;;;;;13.31;100.00;101791.84;5061534;28;20051;-77
2022/10/27 08:14:31;;;;;;;7.18;3.70;;;;;;;13.35;100.00;101797.97;5041167;28;20122;-81
2022/10/27 08:17:18;;;;;;;8.45;4.80;;;;;;;13.40;100.00;101798.84;5045647;28;20049;-79
2022/10/27 08:20:07;;;;;;;9.75;4.72;;;;;;;13.46;100.00;101800.63;5046862;28;20067;-81
2022/10/27 08:22:59;;;;;;;5.22;4.32;;;;;;;13.51;100.00;101796.22;5049610;28;20063;-78
2022/10/27 08:25:49;;;;;;;5.78;4.28;;;;;;;13.59;100.00;101802.31;5040373;28;20049;-77
2022/10/27 08:28:35;;;;;;;5.22;4.07;;;;;;;13.69;100.00;101808.44;5043638;28;20045;-77
2022/10/27 08:31:23;;;;;;;5.95;4.43;;;;;;;13.80;100.00;101805.78;5047595;28;20534;-78
2022/10/27 08:34:10;;;;;;;5.78;3.50;;;;;;;13.92;100.00;101797.81;5034204;28;20655;-80
2022/10/27 08:36:57;;;;;;;10.75;4.55;;;;;;;14.03;100.00;101795.16;5065815;28;20037;-79
2022/10/27 08:39:43;;;;;;;8.95;3.80;;;;;;;14.14;100.00;101789.81;5052575;28;20049;-77
2022/10/27 08:43:01;;;;;;;7.45;4.78;;;;;;;14.23;100.00;101787.13;5041166;28;20044;-78
2022/10/27 08:45:59;;;;;;;8.02;3.97;;;;;;;14.35;100.00;101794.06;5054859;28;20122;-77
2022/10/27 08:48:48;;;;;;;11.80;3.55;;;;;;;14.43;100.00;101796.66;5043929;28;20040;-80
2022/10/27 08:51:35;;;;;;;8.70;4.80;;;;;;;14.46;100.00;101786.97;5046219;28;20037;-79
2022/10/27 08:54:28;;;;;;;5.85;4.13;;;;;;;14.53;100.00;101791.31;5040190;28;20053;-79
2022/10/27 08:57:24;;;;;;;7.50;4.07;;;;;;;14.58;100.00;101786.00;5053948;28;20091;-79
2022/10/27 09:00:15;;;;;;;6.50;3.78;;;;;;;14.64;100.00;101783.38;5036427;28;20049;-79
2022/10/27 09:03:19;;;;;;;8.00;4.25;;;;;;;14.66;100.00;101786.84;5057782;28;20045;-78
2022/10/27 09:06:26;;;;;;;7.50;3.13;;;;;;;14.73;100.00;101782.41;5058629;28;20063;-77
2022/10/27 09:09:27;;;;;;;7.50;3.47;;;;;;;14.79;100.00;101774.44;5046829;28;20044;-75
2022/10/27 09:12:28;;;;;;;5.90;3.47;;;;;;;14.86;100.00;101776.16;5066847;28;20063;-77
2022/10/27 09:15:43;;;;;;;7.68;3.38;;;;;;;14.98;100.00;101779.56;5061776;28;20044;-77
2022/10/27 09:18:38;;;;;;;3.97;3.15;;;;;;;15.08;100.00;101781.22;5057232;28;20129;-76
2022/10/27 09:21:32;;;;;;;7.07;3.20;;;;;;;15.16;100.00;101770.59;5059003;28;20670;-75
2022/10/27 09:24:23;;;;;;;8.75;3.70;;;;;;;15.28;100.00;101777.50;5052078;28;20671;-77
2022/10/27 09:27:17;;;;;;;6.13;3.58;;;;;;;15.37;100.00;101773.03;5059279;28;20656;-78
2022/10/27 09:30:06;;;;;;;7.20;3.50;;;;;;;15.45;100.00;101764.13;5018887;28;20053;-77
2022/10/27 09:32:56;;;;;;;5.38;3.10;;;;;;;15.55;100.00;101768.41;5051463;28;20045;-79
2022/10/27 09:35:43;;;;;;;3.10;2.90;;;;;;;15.66;100.00;101768.31;5052584;28;20040;-77
2022/10/27 09:38:36;;;;;;;6.05;2.75;;;;;;;15.75;100.00;101768.19;5050952;28;20043;-77
2022/10/27 09:41:23;;;;;;;3.78;2.50;;;;;;;15.90;100.00;101766.25;5059164;28;20041;-77
2022/10/27 09:44:23;;;;;;;7.60;2.97;;;;;;;16.03;100.00;101768.72;5054222;28;20055;-77
2022/10/27 09:47:10;;;;;;;3.72;2.22;;;;;;;16.14;100.00;101773.84;5057222;28;20127;-76
2022/10/27 09:50:01;;;;;;;7.85;2.80;;;;;;;16.24;100.00;101771.94;5055983;28;20487;-77
2022/10/27 09:52:48;;;;;;;2.97;2.08;;;;;;;16.40;100.00;101772.59;5046685;28;20122;-76
2022/10/27 09:55:53;;;;;;;8.45;3.25;;;;;;;16.53;98.90;101774.16;5066663;28;20085;-78
2022/10/27 09:59:02;;;;;;;2.72;2.17;;;;;;;16.72;97.66;101772.97;5058816;28;20044;-78
2022/10/27 10:01:56;;;;;;;6.60;2.67;;;;;;;16.91;95.64;101762.97;5051019;28;20047;-76
2022/10/27 10:04:46;;;;;;;4.47;2.33;;;;;;;17.01;94.96;101767.19;5046541;28;20036;-78
2022/10/27 10:07:42;;;;;;;3.65;2.17;;;;;;;17.10;93.53;101769.66;5047595;28;20037;-77
2022/10/27 10:10:30;;;;;;;3.33;2.00;;;;;;;17.18;92.90;101764.25;5070353;28;20036;-77
2022/10/27 10:13:22;;;;;;;3.85;1.90;;;;;;;17.27;91.99;101763.19;5066283;28;20142;-77
2022/10/27 10:16:17;;;;;;;4.68;2.08;;;;;;;17.38;92.59;101765.63;5051651;28;20090;-80
2022/10/27 10:19:07;;;;;;;4.00;1.92;;;;;;;17.48;91.40;101768.09;5039969;28;20071;-78
2022/10/27 10:21:58;;;;;;;2.25;2.00;;;;;;;17.58;90.61;101765.25;5045056;28;20037;-78
2022/10/27 10:24:46;;;;;;;12.57;3.80;;;;;;;17.62;90.45;101770.44;5048213;28;20056;-78
2022/10/27 10:27:37;;;;;;;1.85;1.63;;;;;;;17.68;90.51;101762.38;5037443;28;20214;-77
2022/10/27 10:30:24;;;;;;;3.83;2.35;;;;;;;17.73;90.21;101757.00;5049658;28;20045;-78
2022/10/27 10:33:17;;;;;;;2.40;1.90;;;;;;;17.74;89.23;101761.34;5052221;28;20056;-78
2022/10/27 10:36:26;;;;;;;8.32;2.65;;;;;;;17.78;88.88;101754.22;5057890;28;20048;-74
2022/10/27 10:39:29;;;;;;;2.83;1.95;;;;;;;17.82;88.00;101753.25;5051257;28;20045;-75
2022/10/27 10:42:18;;;;;;;3.33;1.88;;;;;;;17.88;86.44;101753.13;5061747;28;20040;-77
2022/10/27 10:45:18;;;;;;;9.38;2.30;;;;;;;17.89;85.29;101751.38;5054024;28;20059;-77
2022/10/27 10:48:32;;;;;;;4.07;1.83;;;;;;;17.94;84.97;101754.78;5044151;28;20052;-79
2022/10/27 10:51:35;;;;;;;5.37;2.47;;;;;;;17.94;84.58;101752.13;5046987;28;20100;-78
2022/10/27 10:54:28;;;;;;;4.40;2.20;;;;;;;17.98;85.39;101744.09;5051149;28;20040;-80
2022/10/27 10:57:36;;;;;;;16.83;4.75;;;;;;;18.05;84.81;101742.19;5043456;28;20109;-77
2022/10/27 11:00:27;;;;;;;3.00;2.17;;;;;;;18.13;84.68;101742.00;5042274;28;20534;-78
2022/10/27 11:03:17;;;;;;;6.55;2.58;;;;;;;18.22;83.68;101736.50;5040553;28;20704;-80
2022/10/27 11:06:20;;;;;;;5.20;2.47;;;;;;;18.31;83.19;101736.28;5041999;28;20045;-80
2022/10/27 11:09:12;;;;;;;8.25;3.33;;;;;;;18.40;81.64;101729.88;5038851;28;20065;-77
2022/10/27 11:12:00;;;;;;;4.03;2.95;;;;;;;18.48;81.85;101719.94;5040178;28;20127;-78
2022/10/27 11:14:51;;;;;;;3.22;2.78;;;;;;;18.56;81.55;101726.84;5050059;28;20037;-79
2022/10/27 11:17:43;;;;;;;2.80;2.42;;;;;;;18.65;81.82;101714.22;5045875;28;20041;-78
2022/10/27 11:20:37;;;;;;;4.53;2.00;;;;;;;18.77;80.94;101713.06;5044545;28;20052;-79
2022/10/27 11:23:30;;;;;;;7.72;2.90;;;;;;;18.86;79.71;101711.91;5045534;28;20048;-79
2022/10/27 11:26:22;;;;;;;9.75;2.90;;;;;;;18.84;77.03;101693.38;5044475;28;20044;-78
2022/10/27 11:29:28;;;;;;;2.58;2.25;;;;;;;18.83;78.21;101694.28;5041846;28;20049;-77
2022/10/27 11:32:43;;;;;;;2.67;1.58;;;;;;;18.80;77.22;101686.44;5051989;28;20600;-78
2022/10/27 11:35:48;;;;;;;5.88;2.15;;;;;;;18.74;76.32;101688.38;5051761;28;20056;-77
2022/10/27 11:39:03;;;;;;;4.95;1.73;;;;;;;18.70;76.81;101684.94;5046968;28;20036;-81
2022/10/27 11:42:21;;;;;;;6.43;2.15;;;;;;;18.78;76.29;101682.94;5054512;28;20052;-81
2022/10/27 11:45:36;;;;;;;1.85;1.38;;;;;;;18.81;76.04;101679.31;5061651;28;20040;-76
2022/10/27 11:48:32;;;;;;;3.00;1.55;;;;;;;18.89;75.27;101671.16;5062576;28;20051;-77
2022/10/27 11:51:28;;;;;;;5.45;2.38;;;;;;;18.96;75.05;101667.47;5060858;28;20675;-78
2022/10/27 11:54:16;;;;;;;4.03;1.73;;;;;;;19.05;74.24;101661.91;5050004;28;20045;-77
2022/10/27 11:57:34;;;;;;;3.92;2.28;;;;;;;19.20;74.04;101657.94;5040562;28;20084;-82
2022/10/27 12:00:24;;;;;;;4.45;1.13;;;;;;;19.45;72.83;101651.88;5041287;28;20859;-79
2022/10/27 12:03:39;;;;;;;2.95;2.08;;;;;;;19.54;72.18;101656.91;5053444;28;20071;-78
2022/10/27 12:06:58;;;;;;;4.10;1.60;;;;;;;19.66;72.01;101650.38;5049258;28;20045;-78
2022/10/27 12:10:12;;;;;;;4.63;1.80;;;;;;;19.71;70.28;101651.13;5054505;28;20861;-80
2022/10/27 12:13:06;;;;;;;3.88;1.80;;;;;;;19.65;70.87;101646.00;5037911;28;20041;-77
2022/10/27 12:16:04;;;;;;;4.00;1.83;;;;;;;19.56;71.30;101641.81;5035595;28;20037;-78
2022/10/27 12:19:01;;;;;;;2.85;1.65;;;;;;;19.61;71.11;101639.03;5032329;28;20048;-78
2022/10/27 12:22:13;;;;;;;2.63;1.27;;;;;;;19.64;69.40;101637.13;5052154;28;20646;-78
2022/10/27 12:25:15;;;;;;;1.63;1.20;;;;;;;19.67;69.89;101631.75;5038539;28;20049;-76
2022/10/27 12:28:07;;;;;;;2.58;0.98;;;;;;;19.66;69.90;101627.34;5034759;28;20075;-77
2022/10/27 12:30:59;;;;;;;4.65;1.52;;;;;;;19.64;70.02;101623.00;5037372;28;20045;-77
2022/10/27 12:33:57;;;;;;;3.75;1.13;;;;;;;19.69;70.21;101622.84;5037972;28;20040;-80
2022/10/27 12:36:54;;;;;;;2.95;1.27;;;;;;;19.68;69.62;101621.97;5038537;28;20522;-80
2022/10/27 12:39:44;;;;;;;3.50;1.40;;;;;;;19.70;68.99;101619.25;5047694;28;20309;-77
2022/10/27 12:42:46;;;;;;;4.95;0.75;;;;;;;19.71;68.16;101618.34;5047670;28;20044;-76
2022/10/27 12:46:21;;;;;;;2.42;0.95;;;;;;;19.76;67.96;101614.63;5059964;28;20036;-78
2022/10/27 12:49:41;;;;;;;4.43;1.48;;;;;;;19.78;67.33;101606.63;5047889;28;20118;-78
2022/10/27 12:52:32;;;;;;;2.63;1.08;;;;;;;19.78;68.19;101602.16;5040206;28;20053;-79
2022/10/27 12:55:55;;;;;;;0.55;0.40;;;;;;;19.83;67.11;101599.41;5047276;28;20037;-78
2022/10/27 12:59:12;;;;;;;1.08;0.90;;;;;;;19.83;67.33;101596.75;5060695;28;20045;-76
2022/10/27 13:02:03;;;;;;;2.90;1.08;;;;;;;19.78;67.34;101596.00;5031987;28;20052;-77
2022/10/27 13:05:20;;;;;;;1.42;0.82;;;;;;;19.70;67.49;101596.25;5039043;28;20047;-79
2022/10/27 13:08:37;;;;;;;3.33;1.10;;;;;;;19.64;68.05;101591.97;5048803;28;20526;-75
2022/10/27 13:11:46;;;;;;;1.13;0.75;;;;;;;19.62;68.44;101584.97;5046568;28;20041;-77
2022/10/27 13:15:25;;;;;;;1.83;1.00;;;;;;;19.59;68.40;101582.44;5052515;28;20182;-80
2022/10/27 13:18:47;;;;;;;3.20;0.93;;;;;;;19.50;69.02;101576.50;5045827;28;20067;-76